Albert, New Mexico
Current Conditions -  °F | °C
As of 5:53 PM on Friday 31 Oct 2014 (Local Time) from KTCC Reporting Station
Clear Clear  
Wind Chill: 61°   Ceiling: Unl
Heat Index: 61°   Visibility: 10mi
Dew Point: 29°   Wind: 10mph
Humidity: 30%   Direction: 170°S
Pressure: 30.28"   Gusts: NA
Location:  35.7181°N, 103.591°W
Report Text: KTCC 312353Z AUTO 17009KT 10SM CLR 16/M02 A3028 RMK AO2 SLP235 T01611017 10194 20139 56009
Loading
Personal Weather Stations






























Interactive Weather Map
Tropical Storm Tracking
New forecast layout! Learn more

10-Day Weather Forecast

Advertisements
Track Severe Weather on mobile